createdAt,value
2022-09-01T00:01:11.498Z,88
2022-09-01T00:03:38.112Z,88
2022-09-01T00:06:04.739Z,88
2022-09-01T00:08:31.351Z,88
2022-09-01T00:10:57.993Z,88
2022-09-01T00:13:24.591Z,88
2022-09-01T00:15:49.736Z,88
2022-09-01T00:20:42.971Z,88
2022-09-01T00:23:09.606Z,88
2022-09-01T00:25:36.225Z,88
2022-09-01T00:28:02.832Z,88
2022-09-01T00:30:29.478Z,88
2022-09-01T00:32:56.103Z,87.9
2022-09-01T00:35:22.705Z,88
2022-09-01T00:37:49.344Z,88
2022-09-01T00:40:15.969Z,88
2022-09-01T00:45:09.217Z,88
2022-09-01T00:47:35.054Z,88
2022-09-01T00:50:00.187Z,88
2022-09-01T00:52:26.804Z,88
2022-09-01T00:54:53.441Z,88.1
2022-09-01T00:57:20.076Z,88.1
2022-09-01T00:59:46.704Z,88.1
2022-09-01T01:02:13.293Z,88
2022-09-01T01:04:39.929Z,88.1
2022-09-01T01:09:33.168Z,88.1
2022-09-01T01:11:59.794Z,88.1
2022-09-01T01:14:26.420Z,88
2022-09-01T01:16:53.026Z,88.1
2022-09-01T01:19:19.652Z,88.1
2022-09-01T01:21:46.287Z,88.1
2022-09-01T01:29:04.657Z,88.1
2022-09-01T01:33:56.413Z,88
2022-09-01T01:36:23.042Z,88
2022-09-01T01:38:48.181Z,88
2022-09-01T01:41:13.293Z,88
2022-09-01T01:43:39.921Z,88.1
2022-09-01T01:46:06.537Z,88.1
2022-09-01T01:48:33.164Z,88.1
2022-09-01T01:50:59.775Z,88
2022-09-01T01:53:26.419Z,88.1
2022-09-01T01:55:51.531Z,88.1
2022-09-01T01:58:18.164Z,88.1
2022-09-01T02:00:44.790Z,88.1
2022-09-01T02:03:11.398Z,88.1
2022-09-01T02:05:38.020Z,88.1
2022-09-01T02:08:04.659Z,88.1
2022-09-01T02:10:29.787Z,88.2
2022-09-01T02:12:54.924Z,88.2
2022-09-01T02:15:21.536Z,88.2
2022-09-01T02:17:48.159Z,88.2
2022-09-01T02:22:41.407Z,88.1
2022-09-01T02:25:08.024Z,88.2
2022-09-01T02:27:34.649Z,88.1
2022-09-01T02:30:01.261Z,88.2
2022-09-01T02:32:27.895Z,88.2
2022-09-01T02:34:54.511Z,88.2
2022-09-01T02:39:47.771Z,88.2
2022-09-01T02:42:12.904Z,88.2
2022-09-01T02:44:38.017Z,88.2
2022-09-01T02:47:04.645Z,88.2
2022-09-01T02:49:31.258Z,88.2
2022-09-01T02:51:57.885Z,88.2
2022-09-01T02:54:23.597Z,88.2
2022-09-01T02:56:50.238Z,88.2
2022-09-01T02:59:16.847Z,88.2
2022-09-01T03:01:43.495Z,88.2
2022-09-01T03:04:10.099Z,88.2
2022-09-01T03:06:36.723Z,88.2
2022-09-01T03:09:01.844Z,88.2
2022-09-01T03:11:28.467Z,88.2
2022-09-01T03:13:53.588Z,88.3
2022-09-01T03:16:20.227Z,88.3
2022-09-01T03:18:46.831Z,88.3
2022-09-01T03:21:13.467Z,88.2
2022-09-01T03:23:40.082Z,88.3
2022-09-01T03:26:05.932Z,88.3
2022-09-01T03:28:32.545Z,88.3
2022-09-01T03:30:59.163Z,88.3
2022-09-01T03:33:25.783Z,88.3
2022-09-01T03:38:19.032Z,88.3
2022-09-01T03:40:45.664Z,88.3
2022-09-01T03:43:12.282Z,88.3
2022-09-01T03:45:38.896Z,88.4
2022-09-01T03:48:05.518Z,88.4
2022-09-01T03:50:30.656Z,88.4
2022-09-01T03:52:57.270Z,88.4
2022-09-01T03:55:23.894Z,88.4
2022-09-01T03:57:50.516Z,88.5
2022-09-01T04:00:17.141Z,88.4
2022-09-01T04:02:43.774Z,88.4
2022-09-01T04:05:10.396Z,88.2
2022-09-01T04:07:37.012Z,88.3
2022-09-01T04:10:03.634Z,88.3
2022-09-01T04:12:30.248Z,88.3
2022-09-01T04:14:56.889Z,88.3
2022-09-01T04:17:23.527Z,88.3
2022-09-01T04:19:50.138Z,88.3
2022-09-01T04:22:15.249Z,88.2
2022-09-01T04:24:41.876Z,88.1
2022-09-01T04:27:08.498Z,88
2022-09-01T04:29:34.363Z,87.9
2022-09-01T04:32:00.986Z,87.9
2022-09-01T04:34:27.600Z,87.9
2022-09-01T04:36:54.226Z,87.8
2022-09-01T04:39:20.865Z,87.8
2022-09-01T04:41:47.476Z,87.8
2022-09-01T04:44:14.097Z,87.7
2022-09-01T04:46:40.727Z,87.7
2022-09-01T04:49:07.347Z,87.7
2022-09-01T04:51:33.970Z,87.5
2022-09-01T04:53:59.104Z,87.5
2022-09-01T04:56:25.709Z,87.5
2022-09-01T04:58:52.334Z,87.4
2022-09-01T05:01:18.956Z,87.4
2022-09-01T05:03:45.589Z,87.4
2022-09-01T05:06:12.208Z,87.3
2022-09-01T05:08:38.837Z,87.2
2022-09-01T05:11:05.460Z,87.2
2022-09-01T05:13:32.086Z,87.1
2022-09-01T05:15:58.709Z,87.1
2022-09-01T05:18:25.360Z,87
2022-09-01T05:20:51.963Z,86.9
2022-09-01T05:23:18.834Z,86.8
2022-09-01T05:25:43.708Z,86.7
2022-09-01T05:28:10.325Z,86.7
2022-09-01T05:30:36.950Z,86.6
2022-09-01T05:33:03.589Z,86.6
2022-09-01T05:35:30.208Z,86.6
2022-09-01T05:37:56.844Z,86.6
2022-09-01T05:40:23.434Z,86.4
2022-09-01T05:42:50.067Z,86.4
2022-09-01T05:45:16.679Z,86.4
2022-09-01T05:47:43.324Z,86.3
2022-09-01T05:50:09.936Z,86.4
2022-09-01T05:52:35.608Z,86.5
2022-09-01T05:55:02.228Z,86.3
2022-09-01T05:57:28.849Z,86.3
2022-09-01T05:59:53.980Z,86.3
2022-09-01T06:02:20.641Z,86.4
2022-09-01T06:04:47.220Z,86.5
2022-09-01T06:07:13.850Z,86.6
2022-09-01T06:09:40.456Z,86.4
2022-09-01T06:12:07.080Z,86.5
2022-09-01T06:14:33.719Z,86.8
2022-09-01T06:17:00.338Z,87
2022-09-01T06:19:26.946Z,87.1
2022-09-01T06:21:53.579Z,87.2
2022-09-01T06:24:20.200Z,87.2
2022-09-01T06:26:46.812Z,87.5
2022-09-01T06:29:13.433Z,87.5
2022-09-01T06:31:38.595Z,87.5
2022-09-01T06:34:05.203Z,87.6
2022-09-01T06:36:31.831Z,87.5
2022-09-01T06:38:58.435Z,87.6
2022-09-01T06:41:25.060Z,87.5
2022-09-01T06:43:51.678Z,87.4
2022-09-01T06:46:18.315Z,87.3
2022-09-01T06:48:44.933Z,87.5
2022-09-01T06:51:11.557Z,87.5
2022-09-01T06:53:38.167Z,87.5
2022-09-01T06:56:04.814Z,87.4
2022-09-01T06:58:31.440Z,87
2022-09-01T07:00:58.059Z,86.3
2022-09-01T07:03:23.159Z,82.7
2022-09-01T07:05:49.785Z,81.4
2022-09-01T07:08:16.408Z,82.9
2022-09-01T07:10:43.090Z,83.3
2022-09-01T07:13:09.649Z,82.3
2022-09-01T07:15:35.929Z,79.4
2022-09-01T07:18:02.603Z,77.8
2022-09-01T07:20:29.182Z,70.5
2022-09-01T07:22:55.807Z,63.9
2022-09-01T07:25:22.441Z,67.8
2022-09-01T07:27:48.267Z,69.9
2022-09-01T07:30:14.881Z,72.1
2022-09-01T07:32:41.501Z,75.7
2022-09-01T07:35:08.141Z,77.7
2022-09-01T07:37:33.240Z,78
2022-09-01T07:39:58.917Z,79.7
2022-09-01T07:42:25.540Z,81
2022-09-01T07:44:52.173Z,79.8
2022-09-01T07:47:18.787Z,79
2022-09-01T07:49:45.419Z,77.3
2022-09-01T07:52:12.044Z,73.3
2022-09-01T07:54:38.656Z,66
2022-09-01T07:57:05.282Z,64.8
2022-09-01T07:59:31.913Z,69.1
2022-09-01T08:01:58.533Z,74.1
2022-09-01T08:04:25.152Z,76.1
2022-09-01T08:06:51.766Z,76.8
2022-09-01T08:09:16.899Z,78.5
2022-09-01T08:11:43.519Z,79.2
2022-09-01T08:14:10.150Z,78
2022-09-01T08:16:36.782Z,77.9
2022-09-01T08:19:03.407Z,66.6
2022-09-01T08:21:30.021Z,68
2022-09-01T08:23:56.633Z,59.8
2022-09-01T08:26:23.256Z,57.6
2022-09-01T08:28:49.890Z,56.6
2022-09-01T08:31:16.500Z,58
2022-09-01T08:33:43.132Z,53.9
2022-09-01T08:36:09.748Z,61.2
2022-09-01T08:38:36.370Z,64.8
2022-09-01T08:41:01.495Z,70
2022-09-01T08:43:28.166Z,70.2
2022-09-01T08:45:54.739Z,73.5
2022-09-01T08:48:21.365Z,76.5
2022-09-01T08:50:47.994Z,75.3
2022-09-01T08:53:14.618Z,77.1
2022-09-01T08:55:41.235Z,78.4
2022-09-01T08:58:07.862Z,79.9
2022-09-01T09:00:34.488Z,76.6
2022-09-01T09:03:01.119Z,79
2022-09-01T09:05:27.727Z,78.5
2022-09-01T09:07:54.353Z,76.9
2022-09-01T09:10:20.969Z,74.8
2022-09-01T09:12:47.614Z,67.8
2022-09-01T09:15:12.716Z,65.5
2022-09-01T09:17:39.570Z,63.2
2022-09-01T09:20:05.969Z,61.8
2022-09-01T09:22:32.580Z,64.3
2022-09-01T09:24:58.452Z,63
2022-09-01T09:27:25.117Z,66.6
2022-09-01T09:29:51.710Z,66.6
2022-09-01T09:32:18.320Z,67.1
2022-09-01T09:34:44.934Z,69.5
2022-09-01T09:37:11.559Z,67.7
2022-09-01T09:39:38.186Z,74.4
2022-09-01T09:42:04.836Z,70
2022-09-01T09:44:31.434Z,70.5
2022-09-01T09:46:56.584Z,72.2
2022-09-01T09:49:23.180Z,64.3
2022-09-01T09:51:49.829Z,58.9
2022-09-01T09:54:16.424Z,56.8
2022-09-01T09:56:43.068Z,61
2022-09-01T09:59:09.673Z,65.7
2022-09-01T10:01:36.303Z,61.6
2022-09-01T10:04:02.915Z,59.4
2022-09-01T10:06:28.048Z,57.3
2022-09-01T10:08:54.678Z,59
2022-09-01T10:11:21.307Z,61.1
2022-09-01T10:13:47.924Z,62.2
2022-09-01T10:16:14.584Z,65.2
2022-09-01T10:18:41.174Z,64.8
2022-09-01T10:21:07.846Z,68.3
2022-09-01T10:23:34.460Z,66.1
2022-09-01T10:26:01.024Z,65.2
2022-09-01T10:28:27.742Z,68.5
2022-09-01T10:30:54.271Z,63.4
2022-09-01T10:33:20.949Z,65.8
2022-09-01T10:35:47.590Z,66.6
2022-09-01T10:38:14.143Z,67
2022-09-01T10:43:05.895Z,65.1
2022-09-01T10:45:32.613Z,66.7
2022-09-01T10:47:59.217Z,67.5
2022-09-01T10:50:26.030Z,67.8
2022-09-01T10:52:52.450Z,65
2022-09-01T10:55:19.022Z,65.2
2022-09-01T10:57:45.626Z,61.3
2022-09-01T11:00:12.255Z,59.1
2022-09-01T11:02:38.926Z,58.4
2022-09-01T11:05:05.496Z,61.4
2022-09-01T11:07:32.162Z,63.4
2022-09-01T11:09:58.803Z,64.4
2022-09-01T11:12:23.889Z,67.3
2022-09-01T11:14:50.527Z,68.3
2022-09-01T11:17:16.712Z,68.6
2022-09-01T11:19:43.259Z,64.2
2022-09-01T11:22:09.955Z,64.8
2022-09-01T11:24:36.586Z,62.1
2022-09-01T11:27:03.133Z,57.8
2022-09-01T11:29:29.761Z,57.6
2022-09-01T11:31:56.435Z,59
2022-09-01T11:34:23.074Z,59.2
2022-09-01T11:36:49.620Z,61.8
2022-09-01T11:39:16.323Z,62.3
2022-09-01T11:41:42.962Z,62.3
2022-09-01T11:44:08.070Z,62.3
2022-09-01T11:46:34.653Z,61.7
2022-09-01T11:49:01.250Z,60.9
2022-09-01T11:51:27.941Z,62.5
2022-09-01T11:53:54.539Z,61
2022-09-01T11:56:20.543Z,59.1
2022-09-01T11:58:47.152Z,62.9
2022-09-01T12:01:13.781Z,61.7
2022-09-01T12:03:40.412Z,63.1
2022-09-01T12:08:33.613Z,64.5
2022-09-01T12:11:00.229Z,62.6
2022-09-01T12:13:26.913Z,63.8
2022-09-01T12:15:52.000Z,66.9
2022-09-01T12:18:18.601Z,66.6
2022-09-01T12:20:45.280Z,66.9
2022-09-01T12:23:11.070Z,66.6
2022-09-01T12:25:37.664Z,66.1
2022-09-01T12:30:30.923Z,64.3
2022-09-01T12:32:57.523Z,63.6
2022-09-01T12:35:24.178Z,61.5
2022-09-01T12:37:50.781Z,59.2
2022-09-01T12:40:17.403Z,60.3
2022-09-01T12:42:44.061Z,59.4
2022-09-01T12:45:10.681Z,61.1
2022-09-01T12:47:35.778Z,60.7
2022-09-01T12:50:02.440Z,60.7
2022-09-01T12:52:28.173Z,59.4
2022-09-01T12:54:54.787Z,59.7
2022-09-01T12:57:21.416Z,60.6
2022-09-01T12:59:48.055Z,59.7
2022-09-01T13:02:14.688Z,59.4
2022-09-01T13:04:41.301Z,61.2
2022-09-01T13:07:07.900Z,58.8
2022-09-01T13:09:34.532Z,58.9
2022-09-01T13:12:01.153Z,60.7
2022-09-01T13:14:27.780Z,59.5
2022-09-01T13:16:54.395Z,60
2022-09-01T13:19:19.514Z,59.9
2022-09-01T13:21:46.164Z,61.6
2022-09-01T13:24:12.802Z,59.3
2022-09-01T13:26:38.641Z,60.2
2022-09-01T13:29:05.231Z,58
2022-09-01T13:31:31.851Z,59.3
2022-09-01T13:33:58.494Z,58.1
2022-09-01T13:36:25.096Z,57.9
2022-09-01T13:38:51.777Z,58.3
2022-09-01T13:41:18.369Z,60.1
2022-09-01T13:43:44.970Z,60.3
2022-09-01T13:46:11.643Z,61
2022-09-01T13:48:38.233Z,61.1
2022-09-01T13:51:03.346Z,62.8
2022-09-01T13:53:30.021Z,61.3
2022-09-01T13:58:23.245Z,58.9
2022-09-01T14:03:16.455Z,58
2022-09-01T14:05:43.137Z,57.2
2022-09-01T14:08:09.703Z,56
2022-09-01T14:10:36.340Z,55.9
2022-09-01T14:13:02.985Z,56
2022-09-01T14:15:29.570Z,57.6
2022-09-01T14:17:56.205Z,57.6
2022-09-01T14:20:22.830Z,56.6
2022-09-01T14:22:49.453Z,55.8
2022-09-01T14:25:14.580Z,56.7
2022-09-01T14:27:41.195Z,54.5
2022-09-01T14:30:07.815Z,56.1
2022-09-01T14:32:34.486Z,56.8
2022-09-01T14:35:01.109Z,58.5
2022-09-01T14:37:27.680Z,58.3
2022-09-01T14:39:54.337Z,58.7
2022-09-01T14:42:20.933Z,58.1
2022-09-01T14:44:47.567Z,59.1
2022-09-01T14:47:14.183Z,60.3
2022-09-01T14:49:40.806Z,57.8
2022-09-01T14:52:07.430Z,56.3
2022-09-01T14:54:34.060Z,57
2022-09-01T14:56:59.170Z,57.3
2022-09-01T14:59:25.805Z,56.6
2022-09-01T15:01:52.426Z,56.8
2022-09-01T15:04:19.050Z,56.5
2022-09-01T15:06:45.673Z,57.4
2022-09-01T15:09:12.292Z,57
2022-09-01T15:11:38.923Z,58.4
2022-09-01T15:16:32.171Z,57.8
2022-09-01T15:18:58.811Z,56.5
2022-09-01T15:21:25.401Z,55.4
2022-09-01T15:23:52.033Z,54.4
2022-09-01T15:26:18.661Z,54.9
2022-09-01T15:28:43.804Z,55.9
2022-09-01T15:31:10.434Z,55.5
2022-09-01T15:33:37.034Z,56.3
2022-09-01T15:36:03.668Z,56.1
2022-09-01T15:38:30.277Z,57.1
2022-09-01T15:40:56.896Z,55.6
2022-09-01T15:43:23.522Z,56.3
2022-09-01T15:45:50.144Z,56
2022-09-01T15:48:16.778Z,56
2022-09-01T15:50:43.380Z,55.3
2022-09-01T15:53:10.019Z,55.6
2022-09-01T15:55:36.658Z,55.3
2022-09-01T15:58:03.313Z,55.6
2022-09-01T16:00:28.387Z,56.5
2022-09-01T16:02:55.006Z,58
2022-09-01T16:05:21.619Z,58
2022-09-01T16:07:48.275Z,59.7
2022-09-01T16:10:14.871Z,59.7
2022-09-01T16:12:41.509Z,59.8
2022-09-01T16:15:08.142Z,60.5
2022-09-01T16:17:34.751Z,61.7
2022-09-01T16:20:01.367Z,59.8
2022-09-01T16:22:27.987Z,59.3
2022-09-01T16:24:54.614Z,58.8
2022-09-01T16:27:21.239Z,58.9
2022-09-01T16:29:47.861Z,59
2022-09-01T16:32:13.022Z,59.2
2022-09-01T16:34:39.592Z,59.1
2022-09-01T16:37:06.267Z,58.9
2022-09-01T16:39:32.834Z,59.7
2022-09-01T16:41:59.489Z,59.4
2022-09-01T16:44:26.123Z,58.5
2022-09-01T16:46:52.754Z,58.4
2022-09-01T16:49:19.344Z,58.5
2022-09-01T16:51:46.020Z,58.2
2022-09-01T16:56:39.222Z,59
2022-09-01T16:59:05.843Z,58.6
2022-09-01T17:03:59.118Z,59
2022-09-01T17:06:24.215Z,59.2
2022-09-01T17:08:50.829Z,58
2022-09-01T17:11:17.490Z,58.1
2022-09-01T17:13:44.069Z,57.8
2022-09-01T17:16:10.731Z,57.6
2022-09-01T17:18:37.317Z,58.2
2022-09-01T17:21:03.953Z,57.6
2022-09-01T17:23:30.597Z,57.6
2022-09-01T17:25:57.193Z,57.9
2022-09-01T17:28:23.814Z,58.5
2022-09-01T17:30:50.480Z,59.1
2022-09-01T17:33:17.078Z,59.5
2022-09-01T17:35:43.696Z,60.1
2022-09-01T17:40:36.937Z,61.2
2022-09-01T17:43:02.065Z,61.3
2022-09-01T17:45:28.683Z,61.7
2022-09-01T17:47:55.343Z,62.3
2022-09-01T17:50:20.447Z,64
2022-09-01T17:52:47.066Z,63.3
2022-09-01T17:55:13.685Z,64.2
2022-09-01T17:57:40.318Z,64.6
2022-09-01T18:00:06.942Z,65.7
2022-09-01T18:02:33.555Z,65.9
2022-09-01T18:05:00.181Z,68.3
2022-09-01T18:07:26.802Z,68.2
2022-09-01T18:09:51.940Z,71
2022-09-01T18:12:17.075Z,72.9
2022-09-01T18:14:43.686Z,73.7
2022-09-01T18:17:08.826Z,75.5
2022-09-01T18:19:35.446Z,77.5
2022-09-01T18:22:02.057Z,79.6
2022-09-01T18:24:28.682Z,80.8
2022-09-01T18:26:55.309Z,82
2022-09-01T18:29:21.939Z,83
2022-09-01T18:31:48.549Z,83.6
2022-09-01T18:34:15.170Z,84.1
2022-09-01T18:36:41.787Z,84.5
2022-09-01T18:39:08.412Z,84.9
2022-09-01T18:41:35.044Z,85.4
2022-09-01T18:44:01.669Z,85.6
2022-09-01T18:46:28.280Z,86
2022-09-01T18:48:53.439Z,86.3
2022-09-01T18:51:20.029Z,86.4
2022-09-01T18:53:46.656Z,86.5
2022-09-01T18:56:13.289Z,86.7
2022-09-01T18:58:39.911Z,86.9
2022-09-01T19:01:06.575Z,86.9
2022-09-01T19:03:33.159Z,87
2022-09-01T19:05:59.773Z,87.1
2022-09-01T19:08:26.393Z,87.1
2022-09-01T19:10:53.016Z,87.4
2022-09-01T19:13:19.665Z,87.5
2022-09-01T19:15:46.256Z,87.4
2022-09-01T19:18:12.903Z,87.5
2022-09-01T19:20:38.034Z,87.5
2022-09-01T19:23:04.631Z,87.5
2022-09-01T19:25:31.268Z,87.6
2022-09-01T19:27:57.887Z,87.7
2022-09-01T19:30:24.502Z,87.7
2022-09-01T19:32:51.115Z,87.6
2022-09-01T19:35:17.767Z,87.8
2022-09-01T19:37:44.392Z,87.8
2022-09-01T19:40:10.989Z,87.7
2022-09-01T19:42:37.614Z,87.9
2022-09-01T19:45:04.243Z,87.9
2022-09-01T19:47:30.856Z,87.9
2022-09-01T19:49:57.482Z,88
2022-09-01T19:52:22.604Z,87.9
2022-09-01T19:54:49.257Z,88
2022-09-01T19:59:42.464Z,87.9
2022-09-01T20:02:09.106Z,88
2022-09-01T20:04:35.719Z,88
2022-09-01T20:07:02.333Z,87.8
2022-09-01T20:09:28.992Z,88
2022-09-01T20:11:55.603Z,88.1
2022-09-01T20:14:22.212Z,88.1
2022-09-01T20:16:48.830Z,88.1
2022-09-01T20:19:15.481Z,88.1
2022-09-01T20:21:42.102Z,87.8
2022-09-01T20:24:07.196Z,88
2022-09-01T20:26:33.842Z,88.1
2022-09-01T20:29:00.438Z,88.2
2022-09-01T20:31:27.075Z,88
2022-09-01T20:33:53.719Z,88
2022-09-01T20:36:20.311Z,88
2022-09-01T20:38:46.935Z,88.2
2022-09-01T20:41:13.549Z,88.1
2022-09-01T20:43:40.214Z,88.1
2022-09-01T20:46:06.852Z,88.3
2022-09-01T20:48:33.436Z,88.2
2022-09-01T20:51:00.056Z,88.2
2022-09-01T20:53:26.728Z,88.3
2022-09-01T20:55:51.807Z,88.3
2022-09-01T20:58:18.438Z,88.3
2022-09-01T21:00:45.056Z,88.3
2022-09-01T21:03:11.699Z,88.4
2022-09-01T21:05:38.306Z,88.3
2022-09-01T21:08:04.926Z,88.3
2022-09-01T21:10:31.560Z,88.3
2022-09-01T21:12:58.166Z,88.4
2022-09-01T21:15:24.781Z,88.3
2022-09-01T21:17:51.414Z,88.1
2022-09-01T21:20:18.033Z,88.1
2022-09-01T21:22:44.648Z,88.1
2022-09-01T21:25:11.282Z,88
2022-09-01T21:27:36.411Z,88.4
2022-09-01T21:30:03.042Z,88.3
2022-09-01T21:32:29.685Z,88.2
2022-09-01T21:34:56.275Z,88.4
2022-09-01T21:37:22.899Z,88.4
2022-09-01T21:39:49.544Z,88.3
2022-09-01T21:42:16.140Z,88.4
2022-09-01T21:44:42.765Z,88.3
2022-09-01T21:47:09.387Z,88.2
2022-09-01T21:49:36.040Z,88.4
2022-09-01T21:52:02.273Z,88.2
2022-09-01T21:54:28.873Z,88.3
2022-09-01T21:56:55.485Z,88.1
2022-09-01T21:59:20.634Z,88.2
2022-09-01T22:01:47.228Z,88.1
2022-09-01T22:04:13.837Z,88.1
2022-09-01T22:06:40.460Z,88
2022-09-01T22:09:07.096Z,88.1
2022-09-01T22:11:33.717Z,88
2022-09-01T22:14:00.374Z,88.1
2022-09-01T22:16:26.962Z,88
2022-09-01T22:18:53.576Z,87.9
2022-09-01T22:21:20.224Z,87.9
2022-09-01T22:23:46.845Z,87.9
2022-09-01T22:26:13.446Z,87.9
2022-09-01T22:28:40.095Z,88.1
2022-09-01T22:31:05.243Z,88
2022-09-01T22:33:31.853Z,88
2022-09-01T22:35:58.442Z,87.9
2022-09-01T22:38:25.082Z,87.9
2022-09-01T22:40:51.708Z,88
2022-09-01T22:43:18.323Z,87.8
2022-09-01T22:45:44.942Z,87.8
2022-09-01T22:48:11.564Z,87.9
2022-09-01T22:50:38.182Z,87.7
2022-09-01T22:53:04.818Z,87.7
2022-09-01T22:55:31.439Z,87.8
2022-09-01T22:57:58.057Z,88
2022-09-01T23:00:24.685Z,87.9
2022-09-01T23:02:49.811Z,88
2022-09-01T23:05:16.438Z,87.9
2022-09-01T23:07:43.059Z,88
2022-09-01T23:10:09.690Z,88.1
2022-09-01T23:12:36.345Z,87.8
2022-09-01T23:15:02.942Z,87.8
2022-09-01T23:17:29.559Z,88
2022-09-01T23:19:56.175Z,87.8
2022-09-01T23:22:22.791Z,87.8
2022-09-01T23:24:49.417Z,87.8
2022-09-01T23:27:16.035Z,88
2022-09-01T23:29:42.660Z,88
2022-09-01T23:32:09.272Z,88
2022-09-01T23:34:34.408Z,87.9
2022-09-01T23:37:01.036Z,87.8
2022-09-01T23:39:27.658Z,87.8
2022-09-01T23:41:54.296Z,87.9
2022-09-01T23:44:20.894Z,87.9
2022-09-01T23:46:47.554Z,87.9
2022-09-01T23:49:14.136Z,87.9
2022-09-01T23:51:40.793Z,87.9
2022-09-01T23:54:07.383Z,87.9
2022-09-01T23:56:34.024Z,87.9
2022-09-01T23:59:00.625Z,87.9
